Time;durP1;ratioP1;P1;durP2;ratioP2;P2;SDS_P1;SDS_P2;PMS_P1;PMS_P2;Temp;Humidity;BMP_temperature;BMP_pressure;BME280_temperature;BME280_humidity;BME280_pressure;Samples;Min_cycle;Max_cycle;Signal;HPM_P1;HPM_P2
2024/01/25 00:00:49;;;;;;;8.00;2.50;;;30.10;98.50;;;;;;4950023;28;20385;-70
2024/01/25 00:03:16;;;;;;;11.25;2.95;;;30.20;98.60;;;;;;4941931;28;20032;-70
2024/01/25 00:05:44;;;;;;;11.25;3.25;;;30.10;98.90;;;;;;4948384;28;20126;-70
2024/01/25 00:08:12;;;;;;;7.45;2.60;;;30.30;99.00;;;;;;4946182;28;20030;-70
2024/01/25 00:10:39;;;;;;;6.85;2.67;;;30.40;98.70;;;;;;4938738;28;20036;-70
2024/01/25 00:13:07;;;;;;;6.68;2.78;;;30.40;98.30;;;;;;4940254;28;20031;-70
2024/01/25 00:15:34;;;;;;;13.55;2.35;;;30.40;98.30;;;;;;4936063;28;20063;-70
2024/01/25 00:18:02;;;;;;;14.70;3.13;;;30.50;97.50;;;;;;4939654;28;20039;-69
2024/01/25 00:20:30;;;;;;;9.93;2.95;;;30.60;97.30;;;;;;4947345;28;20058;-70
2024/01/25 00:22:57;;;;;;;12.55;2.88;;;30.60;97.50;;;;;;4939727;28;20473;-69
2024/01/25 00:25:25;;;;;;;10.98;2.20;;;30.70;96.90;;;;;;4942428;28;20028;-70
2024/01/25 00:27:52;;;;;;;7.82;2.85;;;30.60;96.80;;;;;;4943878;28;20031;-70
2024/01/25 00:30:20;;;;;;;12.15;2.40;;;30.60;97.10;;;;;;4940998;29;20067;-70
2024/01/25 00:32:49;;;;;;;11.50;2.28;;;30.70;96.40;;;;;;4935564;28;20031;-70
2024/01/25 00:35:17;;;;;;;6.80;1.95;;;30.60;96.20;;;;;;4946111;28;20027;-70
2024/01/25 00:37:44;;;;;;;3.80;1.75;;;30.70;95.20;;;;;;4939697;29;20032;-73
2024/01/25 00:40:13;;;;;;;7.65;2.10;;;30.80;94.90;;;;;;4938323;29;20027;-70
2024/01/25 00:42:52;;;;;;;10.27;2.28;;;30.70;95.20;;;;;;4940162;29;20031;-70
2024/01/25 00:45:20;;;;;;;7.75;1.90;;;30.70;94.90;;;;;;4941832;29;20024;-71
2024/01/25 00:47:48;;;;;;;11.23;2.10;;;30.70;95.00;;;;;;4942747;29;20024;-71
2024/01/25 00:50:23;;;;;;;9.00;1.73;;;30.60;95.10;;;;;;4935633;29;20086;-71
2024/01/25 00:52:54;;;;;;;6.95;1.92;;;30.60;95.10;;;;;;4935132;29;20055;-70
2024/01/25 00:55:22;;;;;;;10.23;2.47;;;30.60;94.80;;;;;;4944111;29;20469;-71
2024/01/25 00:57:51;;;;;;;5.75;1.98;;;30.70;94.90;;;;;;4939187;29;20081;-71
2024/01/25 01:00:19;;;;;;;5.43;2.00;;;30.70;95.00;;;;;;4936421;29;20035;-70
2024/01/25 01:02:47;;;;;;;11.75;2.22;;;30.60;94.40;;;;;;4942566;29;20024;-71
2024/01/25 01:05:16;;;;;;;5.88;1.92;;;30.70;94.10;;;;;;4942305;28;20039;-71
2024/01/25 01:07:44;;;;;;;7.05;2.20;;;30.80;94.20;;;;;;4934974;29;20027;-71
2024/01/25 01:10:13;;;;;;;7.55;1.42;;;30.80;94.10;;;;;;4936517;29;20039;-71
2024/01/25 01:12:40;;;;;;;4.13;1.98;;;30.70;93.80;;;;;;4936318;29;20145;-71
2024/01/25 01:15:08;;;;;;;7.25;1.88;;;30.80;94.20;;;;;;4940347;29;20020;-71
2024/01/25 01:17:35;;;;;;;5.20;1.70;;;30.90;94.50;;;;;;4938711;29;20019;-71
2024/01/25 01:20:03;;;;;;;13.02;1.83;;;31.00;94.20;;;;;;4935350;29;20091;-71
2024/01/25 01:22:30;;;;;;;10.95;2.17;;;31.00;94.30;;;;;;4937986;28;20148;-71
2024/01/25 01:24:58;;;;;;;10.43;2.70;;;31.10;94.70;;;;;;4935759;29;20032;-70
2024/01/25 01:27:25;;;;;;;17.80;3.08;;;31.00;95.20;;;;;;4934246;28;20473;-71
2024/01/25 01:29:53;;;;;;;7.70;2.45;;;31.10;95.50;;;;;;4940659;29;20440;-70
2024/01/25 01:32:20;;;;;;;10.07;2.30;;;31.20;94.80;;;;;;4940430;29;20027;-70
2024/01/25 01:34:47;;;;;;;12.13;2.05;;;31.20;95.00;;;;;;4940229;29;20031;-70
2024/01/25 01:37:15;;;;;;;9.30;2.42;;;31.20;95.50;;;;;;4947469;28;20465;-70
2024/01/25 01:39:42;;;;;;;8.90;2.80;;;31.20;95.60;;;;;;4936620;29;20039;-70
2024/01/25 01:42:09;;;;;;;7.65;2.55;;;31.30;95.20;;;;;;4933863;29;20161;-70
2024/01/25 01:44:37;;;;;;;9.95;2.35;;;31.40;95.70;;;;;;4937554;28;20027;-70
2024/01/25 01:47:04;;;;;;;12.75;2.55;;;31.50;95.10;;;;;;4940949;29;20039;-70
2024/01/25 01:49:32;;;;;;;8.75;2.15;;;31.60;95.20;;;;;;4937088;29;20122;-70
2024/01/25 01:51:59;;;;;;;10.25;2.30;;;31.80;95.00;;;;;;4943171;28;20031;-71
2024/01/25 01:54:26;;;;;;;10.02;2.75;;;32.00;95.20;;;;;;4939078;29;20071;-70
2024/01/25 01:56:55;;;;;;;8.13;2.20;;;32.00;95.00;;;;;;4937898;29;20035;-70
2024/01/25 01:59:25;;;;;;;12.88;2.80;;;32.20;95.40;;;;;;4940903;28;20466;-70
2024/01/25 02:01:53;;;;;;;7.65;2.05;;;32.30;94.60;;;;;;4945070;28;20578;-70
2024/01/25 02:04:20;;;;;;;11.40;2.20;;;32.40;93.90;;;;;;4937037;28;20118;-71
2024/01/25 02:06:48;;;;;;;14.38;2.20;;;32.30;93.50;;;;;;4933594;29;20512;-71
2024/01/25 02:09:15;;;;;;;9.10;1.80;;;32.50;93.00;;;;;;4935505;29;20130;-71
2024/01/25 02:11:43;;;;;;;10.35;2.20;;;32.50;93.30;;;;;;4941104;29;20083;-70
2024/01/25 02:14:11;;;;;;;12.70;2.20;;;32.60;93.20;;;;;;4939795;29;20042;-70
2024/01/25 02:16:39;;;;;;;11.48;2.20;;;32.70;92.90;;;;;;4937044;29;20030;-71
2024/01/25 02:19:06;;;;;;;9.35;2.85;;;32.70;92.10;;;;;;4939491;28;20031;-71
2024/01/25 02:21:34;;;;;;;4.43;2.28;;;32.80;92.10;;;;;;4936549;29;20665;-71
2024/01/25 02:24:01;;;;;;;7.40;2.22;;;33.00;90.00;;;;;;4944067;28;20087;-71
2024/01/25 02:26:29;;;;;;;9.15;2.53;;;33.00;90.20;;;;;;4951113;28;20031;-71
2024/01/25 02:28:56;;;;;;;9.38;2.47;;;32.80;90.30;;;;;;4952554;28;20073;-71
2024/01/25 02:31:23;;;;;;;7.38;2.40;;;32.60;90.70;;;;;;4940594;28;20027;-71
2024/01/25 02:33:51;;;;;;;11.43;2.92;;;32.50;91.70;;;;;;4942202;28;20473;-71
2024/01/25 02:36:18;;;;;;;6.95;2.20;;;32.50;91.50;;;;;;4946539;29;20136;-71
2024/01/25 02:38:46;;;;;;;7.80;2.70;;;32.40;91.60;;;;;;4938780;28;20055;-70
2024/01/25 02:41:13;;;;;;;6.63;2.78;;;32.40;91.30;;;;;;4942843;28;20366;-71
2024/01/25 02:43:40;;;;;;;9.40;3.03;;;32.30;91.30;;;;;;4947356;28;20050;-71
2024/01/25 02:46:08;;;;;;;8.43;1.98;;;32.40;91.30;;;;;;4944378;28;20073;-71
2024/01/25 02:48:36;;;;;;;10.10;2.15;;;32.50;90.90;;;;;;4941873;29;20483;-71
2024/01/25 02:51:03;;;;;;;9.45;2.28;;;32.50;91.20;;;;;;4945676;29;20047;-71
2024/01/25 02:53:30;;;;;;;10.27;2.40;;;32.30;91.50;;;;;;4941634;29;20036;-71
2024/01/25 02:55:58;;;;;;;13.23;2.60;;;32.40;92.20;;;;;;4940151;29;20031;-71
2024/01/25 02:58:25;;;;;;;10.15;2.15;;;32.40;91.90;;;;;;4938155;29;20035;-71
2024/01/25 03:00:52;;;;;;;8.15;2.10;;;32.40;91.80;;;;;;4937629;29;20027;-71
2024/01/25 03:03:26;;;;;;;10.23;1.92;;;32.40;91.60;;;;;;4937304;29;20111;-71
2024/01/25 03:05:53;;;;;;;12.18;2.15;;;32.40;92.00;;;;;;4943219;29;20036;-70
2024/01/25 03:08:21;;;;;;;7.35;1.90;;;32.30;92.20;;;;;;4938541;29;20038;-70
2024/01/25 03:10:49;;;;;;;7.15;1.73;;;32.30;92.00;;;;;;4936468;29;20051;-72
2024/01/25 03:13:17;;;;;;;11.93;2.00;;;32.30;91.90;;;;;;4937888;29;20024;-71
2024/01/25 03:15:44;;;;;;;8.45;1.83;;;32.30;91.90;;;;;;4938969;29;20039;-71
2024/01/25 03:18:12;;;;;;;4.97;1.70;;;32.20;91.80;;;;;;4937249;29;20418;-70
2024/01/25 03:20:39;;;;;;;7.93;1.80;;;32.30;92.00;;;;;;4938068;29;20134;-70
2024/01/25 03:23:07;;;;;;;11.50;2.00;;;32.30;91.90;;;;;;4942743;28;20094;-70
2024/01/25 03:25:34;;;;;;;9.30;1.60;;;32.40;91.60;;;;;;4935003;29;20047;-71
2024/01/25 03:28:02;;;;;;;4.25;1.40;;;32.40;91.40;;;;;;4939416;29;20020;-70
2024/01/25 03:30:29;;;;;;;11.88;2.05;;;32.30;91.40;;;;;;4940614;28;20043;-70
2024/01/25 03:32:56;;;;;;;10.40;2.30;;;32.40;91.60;;;;;;4937357;29;20023;-70
2024/01/25 03:35:24;;;;;;;8.90;2.50;;;32.40;91.90;;;;;;4936241;29;20040;-71
2024/01/25 03:37:51;;;;;;;17.60;4.10;;;32.40;92.20;;;;;;4936079;29;20063;-71
2024/01/25 03:40:19;;;;;;;18.88;3.80;;;32.30;93.20;;;;;;4936463;29;20410;-70
2024/01/25 03:42:46;;;;;;;20.88;4.28;;;32.00;93.80;;;;;;4937230;29;20422;-71
2024/01/25 03:45:13;;;;;;;18.95;4.22;;;31.80;94.30;;;;;;4937541;29;20024;-71
2024/01/25 03:47:41;;;;;;;18.77;3.97;;;31.50;94.70;;;;;;4940969;29;20070;-71
2024/01/25 03:50:08;;;;;;;17.38;4.32;;;31.40;94.50;;;;;;4941083;28;20044;-71
2024/01/25 03:52:36;;;;;;;20.73;4.18;;;31.10;94.60;;;;;;4936944;29;20051;-70
2024/01/25 03:55:04;;;;;;;22.85;4.05;;;31.10;95.20;;;;;;4939982;28;20578;-71
2024/01/25 03:57:32;;;;;;;16.15;4.05;;;31.10;95.10;;;;;;4943148;28;20070;-70
2024/01/25 03:59:59;;;;;;;18.58;4.15;;;30.90;95.10;;;;;;4939752;28;20028;-71
2024/01/25 04:02:27;;;;;;;20.67;4.07;;;30.80;95.00;;;;;;4939557;28;20106;-71
2024/01/25 04:04:54;;;;;;;22.13;4.35;;;30.80;95.20;;;;;;4938987;28;20090;-70
2024/01/25 04:07:21;;;;;;;20.52;4.28;;;30.70;95.40;;;;;;4940637;28;20493;-71
2024/01/25 04:09:50;;;;;;;18.17;4.22;;;30.70;95.30;;;;;;4944825;28;20090;-70
2024/01/25 04:12:18;;;;;;;27.40;3.45;;;30.50;95.30;;;;;;4942577;28;20484;-71
2024/01/25 04:14:45;;;;;;;19.52;3.45;;;30.50;95.50;;;;;;4944849;28;20043;-71
2024/01/25 04:17:12;;;;;;;22.30;4.50;;;30.70;95.20;;;;;;4939493;28;20032;-71
2024/01/25 04:19:40;;;;;;;20.45;3.90;;;30.70;94.70;;;;;;4940684;28;20083;-72
2024/01/25 04:22:07;;;;;;;17.55;3.67;;;30.50;94.60;;;;;;4938464;28;20035;-71
2024/01/25 04:24:34;;;;;;;20.55;3.78;;;30.40;94.90;;;;;;4939169;28;20039;-70
2024/01/25 04:27:02;;;;;;;16.45;4.28;;;30.40;95.00;;;;;;4944516;28;20031;-70
2024/01/25 04:29:29;;;;;;;20.30;4.03;;;30.40;95.10;;;;;;4945381;28;20527;-71
2024/01/25 04:31:56;;;;;;;22.08;4.65;;;30.30;94.90;;;;;;4939454;28;20033;-71
2024/01/25 04:34:24;;;;;;;23.27;4.03;;;30.30;95.20;;;;;;4941632;28;20079;-71
2024/01/25 04:36:51;;;;;;;23.50;4.13;;;30.10;95.20;;;;;;4938492;28;20028;-71
2024/01/25 04:39:18;;;;;;;16.65;3.92;;;30.00;95.10;;;;;;4947383;28;20024;-71
2024/01/25 04:41:46;;;;;;;22.70;3.20;;;29.90;95.10;;;;;;4939973;29;20054;-71
2024/01/25 04:44:13;;;;;;;23.92;4.55;;;29.80;95.00;;;;;;4939189;28;20039;-70
2024/01/25 04:46:42;;;;;;;13.50;3.22;;;29.70;95.10;;;;;;4941845;28;20067;-72
2024/01/25 04:49:09;;;;;;;19.45;3.65;;;29.70;95.20;;;;;;4936260;29;20131;-71
2024/01/25 04:51:37;;;;;;;16.65;3.65;;;29.50;95.20;;;;;;4941869;28;20114;-70
2024/01/25 04:54:04;;;;;;;16.17;3.60;;;29.40;94.80;;;;;;4935949;29;20051;-69
2024/01/25 04:56:31;;;;;;;16.40;3.45;;;29.30;94.90;;;;;;4938516;29;20042;-70
2024/01/25 04:58:59;;;;;;;20.17;4.18;;;29.30;95.10;;;;;;4948205;28;20034;-69
2024/01/25 05:01:26;;;;;;;15.43;3.33;;;29.10;95.30;;;;;;4936043;29;20034;-69
2024/01/25 05:03:54;;;;;;;17.88;3.47;;;29.10;95.20;;;;;;4934548;29;20027;-69
2024/01/25 05:06:21;;;;;;;21.15;3.08;;;29.00;95.00;;;;;;4937480;29;20819;-68
2024/01/25 05:08:48;;;;;;;18.40;3.70;;;29.00;94.80;;;;;;4933573;29;20051;-68
2024/01/25 05:11:16;;;;;;;22.15;3.00;;;29.00;94.60;;;;;;4943902;29;20035;-68
2024/01/25 05:13:43;;;;;;;26.40;3.90;;;28.90;94.50;;;;;;4937974;28;20473;-68
2024/01/25 05:16:11;;;;;;;18.58;3.30;;;28.80;94.60;;;;;;4939288;29;20023;-69
2024/01/25 05:18:39;;;;;;;20.88;3.60;;;28.80;94.40;;;;;;4947759;29;20031;-69
2024/01/25 05:21:06;;;;;;;21.15;3.22;;;28.80;94.40;;;;;;4940755;28;20031;-69
2024/01/25 05:23:33;;;;;;;20.08;3.83;;;28.80;94.40;;;;;;4935916;29;20703;-69
2024/01/25 05:26:02;;;;;;;23.15;3.83;;;28.90;94.20;;;;;;4940147;29;20506;-68
2024/01/25 05:28:29;;;;;;;21.50;4.05;;;28.90;94.00;;;;;;4941584;29;20477;-68
2024/01/25 05:30:56;;;;;;;16.23;3.35;;;28.80;93.80;;;;;;4940764;29;20031;-68
2024/01/25 05:33:24;;;;;;;15.05;3.10;;;28.80;93.70;;;;;;4939046;28;20066;-68
2024/01/25 05:35:51;;;;;;;14.20;2.88;;;28.70;93.30;;;;;;4946538;28;20031;-68
2024/01/25 05:38:18;;;;;;;16.92;2.92;;;28.60;93.40;;;;;;4940036;28;20154;-68
2024/01/25 05:40:46;;;;;;;17.77;2.85;;;28.70;93.10;;;;;;4939352;28;20023;-69
2024/01/25 05:43:13;;;;;;;12.88;3.50;;;28.70;93.10;;;;;;4939641;28;20173;-67
2024/01/25 05:45:41;;;;;;;15.00;2.72;;;28.60;93.20;;;;;;4948770;28;20531;-68
2024/01/25 05:48:08;;;;;;;15.10;2.95;;;28.60;93.40;;;;;;4944605;28;20109;-68
2024/01/25 05:50:36;;;;;;;20.80;3.50;;;28.70;93.30;;;;;;4939431;28;20032;-68
2024/01/25 05:53:03;;;;;;;21.63;3.50;;;28.80;93.20;;;;;;4933078;29;20058;-67
2024/01/25 05:55:31;;;;;;;13.80;3.17;;;28.80;93.10;;;;;;4940502;28;20489;-68
2024/01/25 05:57:58;;;;;;;19.55;3.92;;;28.80;93.00;;;;;;4937338;28;20031;-68
2024/01/25 06:00:26;;;;;;;12.60;3.22;;;28.90;93.10;;;;;;4932482;29;20040;-68
2024/01/25 06:02:53;;;;;;;18.67;3.03;;;29.00;93.00;;;;;;4941300;29;20465;-67
2024/01/25 06:05:20;;;;;;;19.00;4.07;;;29.00;92.90;;;;;;4940069;29;20034;-67
2024/01/25 06:07:49;;;;;;;17.08;2.60;;;29.10;92.90;;;;;;4939126;29;20032;-67
2024/01/25 06:10:17;;;;;;;17.77;2.95;;;29.00;92.80;;;;;;4933473;29;20446;-68
2024/01/25 06:12:44;;;;;;;24.20;3.75;;;29.00;92.60;;;;;;4937005;29;20047;-67
2024/01/25 06:15:11;;;;;;;20.88;3.78;;;29.00;92.70;;;;;;4940525;29;20031;-68
2024/01/25 06:17:39;;;;;;;15.30;2.83;;;29.10;92.60;;;;;;4934606;28;20031;-69
2024/01/25 06:20:06;;;;;;;12.95;3.05;;;29.00;92.80;;;;;;4937682;29;20043;-69
2024/01/25 06:22:34;;;;;;;14.48;3.38;;;29.10;93.00;;;;;;4932752;29;20032;-68
2024/01/25 06:25:03;;;;;;;16.15;3.10;;;29.10;93.10;;;;;;4944757;29;20385;-67
2024/01/25 06:27:30;;;;;;;20.65;3.42;;;29.10;93.00;;;;;;4933769;28;20043;-68
2024/01/25 06:29:58;;;;;;;15.25;2.70;;;29.10;93.20;;;;;;4932932;29;20031;-68
2024/01/25 06:32:25;;;;;;;13.02;3.47;;;29.10;93.10;;;;;;4939687;29;20054;-68
2024/01/25 06:34:53;;;;;;;15.60;2.83;;;29.20;93.20;;;;;;4932481;29;20031;-68
2024/01/25 06:37:20;;;;;;;14.90;2.85;;;29.10;93.00;;;;;;4936581;28;20055;-68
2024/01/25 06:39:48;;;;;;;18.13;3.60;;;29.10;93.10;;;;;;4940281;29;20474;-69
2024/01/25 06:42:15;;;;;;;14.40;3.15;;;29.10;93.00;;;;;;4946082;29;20103;-68
2024/01/25 06:44:43;;;;;;;16.02;3.03;;;29.10;93.00;;;;;;4944345;28;20027;-68
2024/01/25 06:47:11;;;;;;;14.77;4.00;;;29.00;93.40;;;;;;4939791;29;20045;-68
2024/01/25 06:49:38;;;;;;;16.30;2.92;;;28.80;93.50;;;;;;4943603;28;20075;-67
2024/01/25 06:52:06;;;;;;;16.67;3.55;;;28.50;94.20;;;;;;4933883;29;20040;-68
2024/01/25 06:54:33;;;;;;;24.83;3.72;;;28.70;94.10;;;;;;4942545;29;20736;-68
2024/01/25 06:57:01;;;;;;;12.88;2.75;;;28.50;94.40;;;;;;4941239;28;20031;-68
2024/01/25 06:59:28;;;;;;;17.77;3.55;;;28.30;94.70;;;;;;4937284;28;20102;-68
2024/01/25 07:01:56;;;;;;;16.00;3.20;;;28.50;94.70;;;;;;4937485;28;20035;-68
2024/01/25 07:04:23;;;;;;;21.55;3.42;;;28.40;95.00;;;;;;4944632;28;20122;-67
2024/01/25 07:06:51;;;;;;;14.63;3.17;;;28.20;95.40;;;;;;4942201;29;20043;-68
2024/01/25 07:09:19;;;;;;;17.40;3.53;;;28.10;95.60;;;;;;4935259;29;20122;-68
2024/01/25 07:11:46;;;;;;;18.25;3.05;;;28.10;95.70;;;;;;4935938;28;20046;-68
2024/01/25 07:14:14;;;;;;;20.42;3.47;;;28.10;95.80;;;;;;4937400;29;20099;-69
2024/01/25 07:16:41;;;;;;;15.38;2.67;;;28.40;95.40;;;;;;4945584;28;20032;-68
2024/01/25 07:19:08;;;;;;;16.90;3.30;;;28.40;95.10;;;;;;4942479;29;20955;-68
2024/01/25 07:21:36;;;;;;;12.68;2.63;;;28.30;95.50;;;;;;4944271;29;20106;-68
2024/01/25 07:24:04;;;;;;;15.77;3.55;;;28.20;95.60;;;;;;4940144;29;20023;-68
2024/01/25 07:26:31;;;;;;;21.77;3.42;;;28.10;95.80;;;;;;4940299;28;20024;-68
2024/01/25 07:28:59;;;;;;;16.83;3.45;;;28.00;96.00;;;;;;4942852;29;20031;-68
2024/01/25 07:31:27;;;;;;;18.50;3.45;;;28.00;96.20;;;;;;4943340;29;20053;-68
2024/01/25 07:33:55;;;;;;;16.17;3.33;;;28.20;95.80;;;;;;4943561;28;20058;-68
2024/01/25 07:36:23;;;;;;;13.35;3.22;;;28.50;95.50;;;;;;4938829;28;20038;-68
2024/01/25 07:38:51;;;;;;;16.50;3.50;;;28.30;95.80;;;;;;4935796;29;20430;-67
2024/01/25 07:41:18;;;;;;;19.35;3.80;;;28.20;95.70;;;;;;4935318;29;20032;-68
2024/01/25 07:43:45;;;;;;;14.65;3.45;;;28.00;96.20;;;;;;4952017;28;20035;-69
2024/01/25 07:46:14;;;;;;;25.35;4.47;;;28.20;95.80;;;;;;4941188;28;20024;-68
2024/01/25 07:48:45;;;;;;;19.80;4.22;;;28.40;95.70;;;;;;4944555;29;20723;-67
2024/01/25 07:51:13;;;;;;;19.05;3.65;;;28.40;95.90;;;;;;4935449;29;20473;-68
2024/01/25 07:53:41;;;;;;;16.65;3.60;;;28.40;95.80;;;;;;4943582;28;20103;-67
2024/01/25 07:56:10;;;;;;;15.77;3.67;;;28.30;96.10;;;;;;4938461;29;20035;-68
2024/01/25 07:58:38;;;;;;;20.65;3.97;;;28.20;96.30;;;;;;4942770;28;20031;-68
2024/01/25 08:01:09;;;;;;;25.83;3.38;;;28.10;96.40;;;;;;4938071;29;20038;-68
2024/01/25 08:03:37;;;;;;;21.55;3.33;;;28.00;96.70;;;;;;4945371;29;20023;-68
2024/01/25 08:06:04;;;;;;;13.27;3.83;;;27.90;97.20;;;;;;4947309;28;20035;-69
2024/01/25 08:08:32;;;;;;;18.48;3.85;;;28.10;96.80;;;;;;4935976;29;20020;-68
2024/01/25 08:11:01;;;;;;;23.50;4.05;;;28.30;96.30;;;;;;4944923;28;20066;-69
2024/01/25 08:13:28;;;;;;;16.33;3.65;;;28.30;96.20;;;;;;4938231;28;20032;-69
2024/01/25 08:15:57;;;;;;;14.77;3.67;;;28.10;96.60;;;;;;4942641;28;20023;-69
2024/01/25 08:18:29;;;;;;;21.77;4.35;;;27.90;97.00;;;;;;4934458;29;20355;-69
2024/01/25 08:20:57;;;;;;;19.77;3.70;;;27.80;97.40;;;;;;4938618;29;20034;-69
2024/01/25 08:23:25;;;;;;;13.82;3.03;;;27.80;97.40;;;;;;4939907;28;20071;-69
2024/01/25 08:25:52;;;;;;;23.63;3.63;;;27.80;97.40;;;;;;4937495;29;20037;-69
2024/01/25 08:28:21;;;;;;;19.35;2.97;;;28.10;97.10;;;;;;4932836;29;20496;-69
2024/01/25 08:30:49;;;;;;;16.15;3.92;;;28.20;97.00;;;;;;4938391;29;20043;-69
2024/01/25 08:33:16;;;;;;;19.52;4.03;;;28.20;97.20;;;;;;4938525;29;20384;-70
2024/01/25 08:35:43;;;;;;;18.60;3.50;;;28.20;96.90;;;;;;4940259;29;20033;-68
2024/01/25 08:38:11;;;;;;;17.98;3.85;;;28.10;97.20;;;;;;4944696;29;20214;-69
2024/01/25 08:40:38;;;;;;;19.27;3.55;;;28.00;97.40;;;;;;4946160;29;20046;-68
2024/01/25 08:43:06;;;;;;;15.15;3.58;;;28.00;97.70;;;;;;4940478;28;20078;-69
2024/01/25 08:45:33;;;;;;;21.95;3.97;;;27.90;97.90;;;;;;4938348;28;20031;-68
2024/01/25 08:48:01;;;;;;;20.67;4.00;;;27.90;98.20;;;;;;4934992;28;20031;-69
2024/01/25 08:50:28;;;;;;;30.17;4.47;;;27.70;98.40;;;;;;4938299;29;20059;-69
2024/01/25 08:52:56;;;;;;;24.77;4.72;;;27.60;99.20;;;;;;4933747;29;20052;-69
2024/01/25 08:55:23;;;;;;;16.63;4.20;;;27.40;99.50;;;;;;4936046;29;20404;-69
2024/01/25 08:57:51;;;;;;;18.10;4.30;;;27.30;99.80;;;;;;4940173;29;20090;-70
2024/01/25 09:00:18;;;;;;;20.65;4.07;;;27.20;99.90;;;;;;4935458;29;20028;-69
2024/01/25 09:02:46;;;;;;;18.90;3.60;;;27.10;99.90;;;;;;4938865;28;20497;-69
2024/01/25 09:05:13;;;;;;;24.35;4.20;;;27.10;99.90;;;;;;4943631;29;20122;-69
2024/01/25 09:07:42;;;;;;;21.08;3.97;;;27.10;99.90;;;;;;4941119;28;20111;-69
2024/01/25 09:10:09;;;;;;;23.00;3.88;;;27.00;99.90;;;;;;4946910;28;20047;-69
2024/01/25 09:12:37;;;;;;;18.40;4.03;;;27.00;99.90;;;;;;4937536;29;20019;-69
2024/01/25 09:15:05;;;;;;;25.63;4.80;;;26.90;99.90;;;;;;4941512;28;20035;-68
2024/01/25 09:17:33;;;;;;;20.40;3.88;;;27.00;99.90;;;;;;4940514;29;20031;-68
2024/01/25 09:20:00;;;;;;;25.65;5.13;;;27.10;99.90;;;;;;4953309;28;20449;-68
2024/01/25 09:22:27;;;;;;;23.13;4.10;;;27.00;99.90;;;;;;4939872;28;20035;-68
2024/01/25 09:24:55;;;;;;;16.60;4.22;;;27.00;99.90;;;;;;4940662;28;20122;-69
2024/01/25 09:27:22;;;;;;;22.40;4.00;;;26.90;99.90;;;;;;4946224;28;20443;-68
2024/01/25 09:29:50;;;;;;;21.67;4.88;;;26.90;99.90;;;;;;4938455;28;20070;-69
2024/01/25 09:32:18;;;;;;;17.83;3.95;;;26.90;99.90;;;;;;4942769;28;20036;-68
2024/01/25 09:34:47;;;;;;;18.27;3.05;;;26.90;99.90;;;;;;4943440;28;23067;-68
2024/01/25 09:37:14;;;;;;;21.55;3.60;;;26.80;99.90;;;;;;4940416;28;20049;-69
2024/01/25 09:39:42;;;;;;;16.67;3.33;;;26.80;99.90;;;;;;4940206;28;20469;-68
2024/01/25 09:42:12;;;;;;;17.33;2.90;;;26.70;99.90;;;;;;4939289;28;20548;-69
2024/01/25 09:44:40;;;;;;;14.60;3.40;;;26.70;99.90;;;;;;4942076;29;20032;-69
2024/01/25 09:47:08;;;;;;;14.57;3.00;;;26.70;99.90;;;;;;4932175;29;20028;-69
2024/01/25 09:49:36;;;;;;;15.40;3.13;;;26.70;99.90;;;;;;4933593;29;20091;-68
2024/01/25 09:52:04;;;;;;;15.38;2.78;;;26.70;99.90;;;;;;4934064;29;20035;-68
2024/01/25 09:54:35;;;;;;;20.52;3.35;;;26.70;99.90;;;;;;4937797;29;20048;-68
2024/01/25 09:57:16;;;;;;;19.10;4.72;;;26.60;99.90;;;;;;4934312;29;20042;-69
2024/01/25 09:59:44;;;;;;;25.88;4.05;;;26.60;99.90;;;;;;4935559;28;20028;-69
2024/01/25 10:02:12;;;;;;;19.75;4.25;;;26.60;99.80;;;;;;4933289;29;20517;-69
2024/01/25 10:04:40;;;;;;;16.83;3.92;;;26.60;99.70;;;;;;4939467;29;20027;-69
2024/01/25 10:07:07;;;;;;;16.58;3.17;;;26.60;99.70;;;;;;4939094;28;20118;-69
2024/01/25 10:09:42;;;;;;;15.63;3.72;;;26.50;99.80;;;;;;4939773;28;20056;-69
2024/01/25 10:12:09;;;;;;;16.98;3.50;;;26.60;99.90;;;;;;4942669;28;20362;-69
2024/01/25 10:14:37;;;;;;;14.93;3.70;;;26.60;99.90;;;;;;4943135;29;20027;-67
2024/01/25 10:17:05;;;;;;;14.77;3.85;;;26.60;99.80;;;;;;4938470;29;20043;-68
2024/01/25 10:19:33;;;;;;;25.15;4.95;;;26.50;99.90;;;;;;4943827;29;20119;-67
2024/01/25 10:22:00;;;;;;;18.58;3.60;;;26.50;99.90;;;;;;4944341;28;20089;-68
2024/01/25 10:24:28;;;;;;;18.65;5.22;;;26.40;99.90;;;;;;4936516;28;20056;-67
2024/01/25 10:26:55;;;;;;;19.80;5.13;;;26.30;99.90;;;;;;4934124;29;20521;-67
2024/01/25 10:29:26;;;;;;;18.08;3.70;;;26.30;99.90;;;;;;4935880;29;20062;-68
2024/01/25 10:31:53;;;;;;;18.42;3.90;;;26.20;99.90;;;;;;4946023;28;20043;-68
2024/01/25 10:34:23;;;;;;;16.48;3.42;;;26.30;99.90;;;;;;4940953;29;20075;-68
2024/01/25 10:36:51;;;;;;;21.55;4.32;;;26.30;99.90;;;;;;4933573;29;20047;-67
2024/01/25 10:39:21;;;;;;;19.92;3.85;;;26.30;99.90;;;;;;4939328;29;20031;-67
2024/01/25 10:41:50;;;;;;;21.88;4.13;;;26.30;99.90;;;;;;4933846;28;20031;-67
2024/01/25 10:44:21;;;;;;;17.75;3.35;;;26.20;99.90;;;;;;4938269;28;20047;-67
2024/01/25 10:46:49;;;;;;;15.05;3.80;;;26.20;99.90;;;;;;4941267;29;20066;-68
2024/01/25 10:49:17;;;;;;;19.23;3.92;;;26.20;99.90;;;;;;4941504;28;20114;-68
2024/01/25 10:51:46;;;;;;;27.63;4.25;;;26.20;99.90;;;;;;4942863;28;20086;-67
2024/01/25 10:54:15;;;;;;;17.95;3.40;;;26.20;99.70;;;;;;4942073;28;20564;-68
2024/01/25 10:56:43;;;;;;;20.75;4.45;;;26.10;99.80;;;;;;4941644;29;20038;-68
2024/01/25 10:59:12;;;;;;;20.08;3.83;;;26.10;99.90;;;;;;4947656;29;20035;-68
2024/01/25 11:01:46;;;;;;;17.42;3.80;;;26.10;99.90;;;;;;4937369;29;20028;-68
2024/01/25 11:04:17;;;;;;;16.05;3.53;;;26.40;99.60;;;;;;4943325;29;20032;-67
2024/01/25 11:06:48;;;;;;;16.73;4.20;;;26.50;99.50;;;;;;4945368;29;20045;-67
2024/01/25 11:09:24;;;;;;;16.05;3.35;;;26.40;99.70;;;;;;4939999;29;20027;-68
2024/01/25 11:11:55;;;;;;;12.67;2.97;;;26.30;99.90;;;;;;4937419;29;20024;-68
2024/01/25 11:14:25;;;;;;;14.18;2.75;;;26.30;99.90;;;;;;4948654;28;20143;-68
2024/01/25 11:16:53;;;;;;;15.80;3.40;;;26.30;99.90;;;;;;4947151;28;20034;-68
2024/01/25 11:19:22;;;;;;;18.88;3.55;;;26.20;99.90;;;;;;4936359;29;20024;-69
2024/01/25 11:21:51;;;;;;;16.35;3.88;;;26.20;99.90;;;;;;4940788;28;20038;-68
2024/01/25 11:24:18;;;;;;;16.50;3.50;;;26.10;99.90;;;;;;4940478;29;20477;-68
2024/01/25 11:26:46;;;;;;;11.60;3.58;;;26.20;99.90;;;;;;4936414;29;20035;-68
2024/01/25 11:29:22;;;;;;;13.68;3.38;;;26.60;99.60;;;;;;4941673;29;20426;-68
2024/01/25 11:31:51;;;;;;;13.23;3.35;;;26.60;99.60;;;;;;4938012;29;20046;-68
2024/01/25 11:34:18;;;;;;;16.77;4.00;;;26.90;99.00;;;;;;4937439;29;20024;-68
2024/01/25 11:36:46;;;;;;;12.13;3.70;;;26.50;99.30;;;;;;4937330;29;20111;-67
2024/01/25 11:39:17;;;;;;;16.95;4.13;;;26.70;99.60;;;;;;4939426;28;20031;-68
2024/01/25 11:41:45;;;;;;;14.30;3.70;;;26.60;99.70;;;;;;4937114;29;20350;-68
2024/01/25 11:44:13;;;;;;;18.98;4.32;;;26.50;99.70;;;;;;4939614;29;20600;-69
2024/01/25 11:46:41;;;;;;;14.32;3.15;;;26.70;99.30;;;;;;4943869;28;20061;-69
2024/01/25 11:49:08;;;;;;;17.40;3.92;;;26.40;99.70;;;;;;4936912;29;20027;-67
2024/01/25 11:51:36;;;;;;;21.25;3.30;;;26.10;99.90;;;;;;4935162;29;20078;-68
2024/01/25 11:54:07;;;;;;;22.30;3.85;;;26.00;99.90;;;;;;4937012;29;20477;-68
2024/01/25 11:56:41;;;;;;;20.33;3.55;;;25.90;99.90;;;;;;4936583;28;20382;-68
2024/01/25 11:59:10;;;;;;;22.98;4.35;;;25.90;99.90;;;;;;4944507;28;20027;-68
2024/01/25 12:01:38;;;;;;;18.80;3.30;;;25.80;99.90;;;;;;4944127;28;20024;-68
2024/01/25 12:04:07;;;;;;;22.77;3.90;;;25.70;99.90;;;;;;4940069;28;20054;-68
2024/01/25 12:06:34;;;;;;;20.67;3.30;;;25.70;99.90;;;;;;4938870;28;20023;-68
2024/01/25 12:09:12;;;;;;;19.98;3.35;;;25.70;99.90;;;;;;4937325;28;20035;-69
2024/01/25 12:11:42;;;;;;;14.02;3.38;;;25.70;99.90;;;;;;4936106;29;20046;-70
2024/01/25 12:14:12;;;;;;;17.85;3.58;;;25.70;99.90;;;;;;4950192;29;20559;-70
2024/01/25 12:16:40;;;;;;;20.52;4.35;;;25.60;99.90;;;;;;4935837;29;20024;-69
2024/01/25 12:19:08;;;;;;;18.20;4.03;;;25.60;99.90;;;;;;4943388;29;20442;-69
2024/01/25 12:21:36;;;;;;;16.88;3.80;;;25.60;99.90;;;;;;4938767;28;20028;-68
2024/01/25 12:24:05;;;;;;;23.05;4.53;;;25.50;99.90;;;;;;4941752;28;20478;-68
2024/01/25 12:26:35;;;;;;;10.95;3.42;;;25.50;99.90;;;;;;4944210;29;20028;-69
2024/01/25 12:29:04;;;;;;;20.50;4.53;;;25.60;99.90;;;;;;4942302;29;20031;-69
2024/01/25 12:31:32;;;;;;;15.48;4.22;;;25.60;99.90;;;;;;4938006;29;20385;-69
2024/01/25 12:34:03;;;;;;;16.33;4.07;;;25.50;99.90;;;;;;4934747;29;20039;-70
2024/01/25 12:36:30;;;;;;;21.55;4.32;;;25.50;99.90;;;;;;4935507;29;20028;-69
2024/01/25 12:38:58;;;;;;;19.42;3.80;;;25.50;99.90;;;;;;4940713;29;20414;-68
2024/01/25 12:41:25;;;;;;;19.63;4.60;;;25.50;99.90;;;;;;4936167;28;20054;-68